KCIC/CIC METAR and TAF weather

Enter ICAO airport designator
Station Type Date Time Source
KCIC METAR 2018/12/10 18:48 UTC NOAA

KCIC 101848Z 30009KT 10SM FEW080 SCT200 13/07 A3024


Station Type Date Time Source
KCIC Decoded METAR 2018/12/10 18:48 UTC NOAA

Chico Municipal , CA, United States (KCIC) 39-48N 121-51W
Dec 10, 2018 - 01:48 PM EST / 2018.12.10 1848 UTC
Wind: from the WNW (300 degrees) at 10 MPH (9 KT):0
Visibility: 10 mile(s):0
Sky conditions: partly cloudy
Temperature: 55 F (13 C)
Dew Point: 44 F (7 C)
Relative Humidity: 66%
Pressure (altimeter): 30.24 in. Hg (1024 hPa)
ob: KCIC 101848Z 30009KT 10SM FEW080 SCT200 13/07 A3024
cycle: 19

Station Type Date Time Source
KCIC TAF UTC NOAA

Error!


Example: see airport list